createdAt,value
2022-10-05T00:00:52.877Z,20.70
2022-10-05T00:03:37.192Z,19.20
2022-10-05T00:06:13.330Z,24.40
2022-10-05T00:08:45.897Z,19.40
2022-10-05T00:11:19.653Z,21.20
2022-10-05T00:13:53.038Z,23.10
2022-10-05T00:16:25.409Z,20.00
2022-10-05T00:19:00.530Z,15.30
2022-10-05T00:21:34.629Z,22.90
2022-10-05T00:24:15.890Z,21.70
2022-10-05T00:26:52.660Z,20.90
2022-10-05T00:29:29.330Z,20.40
2022-10-05T00:32:02.888Z,18.80
2022-10-05T00:34:36.001Z,21.10
2022-10-05T00:37:08.789Z,19.50
2022-10-05T00:39:42.000Z,21.60
2022-10-05T00:42:37.660Z,24.20
2022-10-05T00:45:14.703Z,24.30
2022-10-05T00:48:02.046Z,23.70
2022-10-05T00:51:02.496Z,21.60
2022-10-05T00:53:44.700Z,19.40
2022-10-05T00:56:40.728Z,21.40
2022-10-05T00:59:23.808Z,26.40
2022-10-05T01:02:04.034Z,23.70
2022-10-05T01:04:44.153Z,24.40
2022-10-05T01:07:24.985Z,23.60
2022-10-05T01:10:04.531Z,26.90
2022-10-05T01:12:44.528Z,26.40
2022-10-05T01:15:28.193Z,31.10
2022-10-05T01:18:09.880Z,24.60
2022-10-05T01:20:51.632Z,29.50
2022-10-05T01:23:55.747Z,28.50
2022-10-05T01:26:45.186Z,25.50
2022-10-05T01:29:23.483Z,32.50
2022-10-05T01:32:01.437Z,28.70
2022-10-05T01:34:40.885Z,24.60
2022-10-05T01:37:22.972Z,22.50
2022-10-05T01:40:03.949Z,26.90
2022-10-05T01:42:43.509Z,29.60
2022-10-05T01:45:24.885Z,31.30
2022-10-05T01:48:05.042Z,28.90
2022-10-05T01:50:48.594Z,34.70
2022-10-05T01:53:32.787Z,32.80
2022-10-05T01:56:13.033Z,35.90
2022-10-05T01:58:57.181Z,31.00
2022-10-05T02:01:37.062Z,38.10
2022-10-05T02:04:35.661Z,37.80
2022-10-05T02:07:15.182Z,36.00
2022-10-05T02:09:54.121Z,38.40
2022-10-05T02:12:31.082Z,34.50
2022-10-05T02:15:10.432Z,46.20
2022-10-05T02:17:47.196Z,40.40
2022-10-05T02:20:25.882Z,48.90
2022-10-05T02:23:03.625Z,47.50
2022-10-05T02:25:38.587Z,50.30
2022-10-05T02:28:14.392Z,53.90
2022-10-05T02:30:52.494Z,51.70
2022-10-05T02:33:30.437Z,50.90
2022-10-05T02:36:09.366Z,58.10
2022-10-05T02:38:57.174Z,53.50
2022-10-05T02:41:40.614Z,53.30
2022-10-05T02:44:20.052Z,52.50
2022-10-05T02:47:04.493Z,57.70
2022-10-05T02:49:45.641Z,57.00
2022-10-05T02:52:26.375Z,59.40
2022-10-05T02:57:40.294Z,60.90
2022-10-05T03:00:17.563Z,56.30
2022-10-05T03:03:02.462Z,55.60
2022-10-05T03:05:40.636Z,58.20
2022-10-05T03:08:23.277Z,59.20
2022-10-05T03:11:05.624Z,52.10
2022-10-05T03:13:49.442Z,55.10
2022-10-05T03:16:37.130Z,61.20
2022-10-05T03:19:23.209Z,54.90
2022-10-05T03:22:02.860Z,60.10
2022-10-05T03:25:00.433Z,54.20
2022-10-05T03:27:42.569Z,60.40
2022-10-05T03:30:20.070Z,61.70
2022-10-05T03:33:04.251Z,54.60
2022-10-05T03:35:46.809Z,54.90
2022-10-05T03:38:27.893Z,49.70
2022-10-05T03:41:10.000Z,54.00
2022-10-05T03:44:12.065Z,52.20
2022-10-05T03:46:56.204Z,51.80
2022-10-05T03:49:42.204Z,54.30
2022-10-05T03:52:27.075Z,49.90
2022-10-05T03:55:05.105Z,53.10
2022-10-05T03:57:40.102Z,47.30
2022-10-05T04:00:18.420Z,47.60
2022-10-05T04:03:01.098Z,43.10
2022-10-05T04:05:39.649Z,57.50
2022-10-05T04:08:22.121Z,54.30
2022-10-05T04:10:57.260Z,48.00
2022-10-05T04:13:35.582Z,48.90
2022-10-05T04:16:14.151Z,47.70
2022-10-05T04:18:51.468Z,51.40
2022-10-05T04:21:34.329Z,44.50
2022-10-05T04:24:12.550Z,46.20
2022-10-05T04:26:51.961Z,43.30
2022-10-05T04:29:40.742Z,45.10
2022-10-05T04:32:30.001Z,42.90
2022-10-05T04:35:25.361Z,43.10
2022-10-05T04:38:04.909Z,42.30
2022-10-05T04:40:49.567Z,51.00
2022-10-05T04:43:33.722Z,39.60
2022-10-05T04:46:19.645Z,41.50
2022-10-05T04:49:15.311Z,44.10
2022-10-05T04:51:57.690Z,43.10
2022-10-05T04:54:44.754Z,40.80
2022-10-05T04:57:23.277Z,38.20
2022-10-05T05:00:06.349Z,38.40
2022-10-05T05:03:23.819Z,42.70
2022-10-05T05:06:17.259Z,36.90
2022-10-05T05:09:30.801Z,41.80
2022-10-05T05:12:30.167Z,39.20
2022-10-05T05:15:23.919Z,37.60
2022-10-05T05:18:20.728Z,36.30
2022-10-05T05:21:03.453Z,34.40
2022-10-05T05:23:43.375Z,37.50
2022-10-05T05:26:25.073Z,29.80
2022-10-05T05:29:06.652Z,31.50
2022-10-05T05:31:46.899Z,32.40
2022-10-05T05:37:06.319Z,30.90
2022-10-05T05:39:50.595Z,31.40
2022-10-05T05:42:39.222Z,33.60
2022-10-05T05:45:23.893Z,32.10
2022-10-05T05:48:00.025Z,29.30
2022-10-05T05:50:49.967Z,28.30
2022-10-05T05:53:26.805Z,32.50
2022-10-05T05:56:09.598Z,28.90
2022-10-05T05:58:50.154Z,31.50
2022-10-05T06:01:33.172Z,27.20
2022-10-05T06:04:15.334Z,28.40
2022-10-05T06:06:52.337Z,25.60
2022-10-05T06:09:32.043Z,26.80
2022-10-05T06:12:22.235Z,28.80
2022-10-05T06:14:59.513Z,30.40
2022-10-05T06:18:40.081Z,27.60
2022-10-05T06:21:44.598Z,24.30
2022-10-05T06:25:06.851Z,23.60
2022-10-05T06:27:59.844Z,23.90
2022-10-05T06:30:42.905Z,27.50
2022-10-05T06:33:26.329Z,21.20
2022-10-05T06:36:13.230Z,22.40
2022-10-05T06:39:04.226Z,16.50
2022-10-05T06:41:50.856Z,22.50
2022-10-05T06:44:28.004Z,18.70
2022-10-05T06:47:35.943Z,14.60
2022-10-05T06:50:38.009Z,15.40
2022-10-05T06:53:34.896Z,13.90
2022-10-05T06:56:16.337Z,16.30
2022-10-05T06:58:57.476Z,16.30
2022-10-05T07:01:45.174Z,11.20
2022-10-05T07:04:36.747Z,14.90
2022-10-05T07:07:21.767Z,11.50
2022-10-05T07:10:12.328Z,11.60
2022-10-05T07:12:55.616Z,9.80
2022-10-05T07:15:53.483Z,9.10
2022-10-05T07:18:37.657Z,7.80
2022-10-05T07:21:18.229Z,13.70
2022-10-05T07:24:00.599Z,10.10
2022-10-05T07:26:39.597Z,8.30
2022-10-05T07:29:29.265Z,10.40
2022-10-05T07:32:13.003Z,6.10
2022-10-05T07:34:54.981Z,7.70
2022-10-05T07:37:54.484Z,7.10
2022-10-05T07:40:33.890Z,10.20
2022-10-05T07:43:23.271Z,11.40
2022-10-05T07:46:06.014Z,6.50
2022-10-05T07:48:53.315Z,6.90
2022-10-05T07:51:34.751Z,7.70
2022-10-05T07:54:25.491Z,7.50
2022-10-05T07:57:06.375Z,9.30
2022-10-05T07:59:46.562Z,8.00
2022-10-05T08:02:28.406Z,7.60
2022-10-05T08:05:10.875Z,6.20
2022-10-05T08:07:43.315Z,5.70
2022-10-05T08:10:31.865Z,11.60
2022-10-05T08:13:13.596Z,10.60
2022-10-05T08:15:48.529Z,7.60
2022-10-05T08:18:27.816Z,9.40
2022-10-05T08:21:00.767Z,8.20
2022-10-05T08:23:43.858Z,8.70
2022-10-05T08:26:23.674Z,12.90
2022-10-05T08:29:08.208Z,8.90
2022-10-05T08:31:46.322Z,6.70
2022-10-05T08:34:27.346Z,7.20
2022-10-05T08:37:05.289Z,6.70
2022-10-05T08:39:42.732Z,7.30
2022-10-05T08:42:45.066Z,8.30
2022-10-05T08:45:45.924Z,6.40
2022-10-05T08:48:35.998Z,7.70
2022-10-05T08:51:44.166Z,7.30
2022-10-05T08:54:36.825Z,7.70
2022-10-05T08:57:43.838Z,4.60
2022-10-05T09:00:19.911Z,8.20
2022-10-05T09:03:29.862Z,8.00
2022-10-05T09:06:24.337Z,6.20
2022-10-05T09:09:15.503Z,4.70
2022-10-05T09:12:04.367Z,11.00
2022-10-05T09:15:01.328Z,7.10
2022-10-05T09:18:25.483Z,3.90
2022-10-05T09:21:02.725Z,6.30
2022-10-05T09:23:42.980Z,4.10
2022-10-05T09:26:46.187Z,4.20
2022-10-05T09:29:55.180Z,3.50
2022-10-05T09:33:09.343Z,8.70
2022-10-05T09:36:15.684Z,4.70
2022-10-05T09:39:10.682Z,6.10
2022-10-05T09:42:09.185Z,7.30
2022-10-05T09:45:21.130Z,6.60
2022-10-05T09:48:15.837Z,7.50
2022-10-05T09:51:09.678Z,3.60
2022-10-05T09:54:13.895Z,4.60
2022-10-05T09:57:12.051Z,6.10
2022-10-05T10:00:21.828Z,5.80
2022-10-05T10:03:21.414Z,3.80
2022-10-05T10:06:15.159Z,6.60
2022-10-05T10:08:59.740Z,6.30
2022-10-05T10:11:52.151Z,6.00
2022-10-05T10:14:54.204Z,3.70
2022-10-05T10:17:45.028Z,5.60
2022-10-05T10:20:27.870Z,4.00
2022-10-05T10:23:25.360Z,6.10
2022-10-05T10:26:19.687Z,4.80
2022-10-05T10:29:30.327Z,5.30
2022-10-05T10:32:19.903Z,4.20
2022-10-05T10:35:20.151Z,5.10
2022-10-05T10:38:24.881Z,4.60
2022-10-05T10:41:36.503Z,5.50
2022-10-05T10:44:47.674Z,9.20
2022-10-05T10:47:51.988Z,8.00
2022-10-05T10:51:02.102Z,5.70
2022-10-05T10:53:52.946Z,8.30
2022-10-05T10:56:55.294Z,5.30
2022-10-05T11:00:04.841Z,5.90
2022-10-05T11:02:59.564Z,4.10
2022-10-05T11:06:08.470Z,5.90
2022-10-05T11:09:02.754Z,8.50
2022-10-05T11:11:58.786Z,3.60
2022-10-05T11:15:06.576Z,6.60
2022-10-05T11:17:58.209Z,4.50
2022-10-05T11:21:06.860Z,4.50
2022-10-05T11:24:01.274Z,4.70
2022-10-05T11:26:59.815Z,4.90
2022-10-05T11:30:07.041Z,6.10
2022-10-05T11:33:04.006Z,5.30
2022-10-05T11:35:52.122Z,7.30
2022-10-05T11:38:48.318Z,7.60
2022-10-05T11:42:04.025Z,6.40
2022-10-05T11:45:14.000Z,3.80
2022-10-05T11:48:04.294Z,3.40
2022-10-05T11:50:40.897Z,5.90
2022-10-05T11:53:21.041Z,5.30
2022-10-05T11:56:04.305Z,5.30
2022-10-05T11:58:43.076Z,6.60
2022-10-05T12:01:27.187Z,5.70
2022-10-05T12:04:07.415Z,5.50
2022-10-05T12:06:54.846Z,15.80
2022-10-05T12:10:03.290Z,4.20
2022-10-05T12:12:44.375Z,3.80
2022-10-05T12:15:26.564Z,12.60
2022-10-05T12:18:08.355Z,9.40
2022-10-05T12:20:47.541Z,8.60
2022-10-05T12:23:28.954Z,4.90
2022-10-05T12:26:04.960Z,13.70
2022-10-05T12:28:42.390Z,3.70
2022-10-05T12:31:31.783Z,5.80
2022-10-05T12:34:14.140Z,13.90
2022-10-05T12:37:04.220Z,15.40
2022-10-05T12:39:48.935Z,20.10
2022-10-05T12:42:31.324Z,26.70
2022-10-05T12:45:17.668Z,80.60
2022-10-05T12:48:06.510Z,11.80
2022-10-05T12:50:43.162Z,14.70
2022-10-05T12:53:30.001Z,7.70
2022-10-05T12:56:10.650Z,4.50
2022-10-05T12:58:52.883Z,4.50
2022-10-05T13:01:35.133Z,6.10
2022-10-05T13:04:19.912Z,5.30
2022-10-05T13:07:11.664Z,4.60
2022-10-05T13:09:53.152Z,4.90
2022-10-05T13:12:36.285Z,4.90
2022-10-05T13:15:16.541Z,5.80
2022-10-05T13:17:58.662Z,6.40
2022-10-05T13:20:35.349Z,7.40
2022-10-05T13:23:14.040Z,6.00
2022-10-05T13:25:53.524Z,5.80
2022-10-05T13:28:32.688Z,5.90
2022-10-05T13:31:14.062Z,7.70
2022-10-05T13:34:02.592Z,5.10
2022-10-05T13:36:45.076Z,5.40
2022-10-05T13:39:39.441Z,3.90
2022-10-05T13:42:16.564Z,7.60
2022-10-05T13:44:54.825Z,5.00
2022-10-05T13:47:35.914Z,6.60
2022-10-05T13:50:18.357Z,5.40
2022-10-05T13:52:57.471Z,4.40
2022-10-05T13:55:42.013Z,7.10
2022-10-05T13:58:25.009Z,6.40
2022-10-05T14:00:59.760Z,7.40
2022-10-05T14:03:35.052Z,6.50
2022-10-05T14:06:14.478Z,5.40
2022-10-05T14:08:53.080Z,7.50
2022-10-05T14:11:31.376Z,7.50
2022-10-05T14:14:14.853Z,9.30
2022-10-05T14:16:55.262Z,8.40
2022-10-05T14:22:12.733Z,8.70
2022-10-05T14:24:55.528Z,8.40
2022-10-05T14:27:30.320Z,8.80
2022-10-05T14:30:18.792Z,9.30
2022-10-05T14:32:56.958Z,7.70
2022-10-05T14:35:31.930Z,7.40
2022-10-05T14:38:18.562Z,9.60
2022-10-05T14:41:05.618Z,5.70
2022-10-05T14:43:38.360Z,5.80
2022-10-05T14:46:29.188Z,6.30
2022-10-05T14:49:25.823Z,4.70
2022-10-05T14:51:58.888Z,6.90
2022-10-05T14:54:36.780Z,7.00
2022-10-05T14:57:19.576Z,5.40
2022-10-05T15:00:10.486Z,4.60
2022-10-05T15:03:18.812Z,5.70
2022-10-05T15:05:54.841Z,6.10
2022-10-05T15:08:41.811Z,7.70
2022-10-05T15:11:25.377Z,5.60
2022-10-05T15:13:59.141Z,8.20
2022-10-05T15:16:41.139Z,7.20
2022-10-05T15:19:20.992Z,7.10
2022-10-05T15:22:06.170Z,6.60
2022-10-05T15:24:45.500Z,12.40
2022-10-05T15:27:34.195Z,6.70
2022-10-05T15:30:12.677Z,6.80
2022-10-05T15:33:00.859Z,10.10
2022-10-05T15:35:40.539Z,8.10
2022-10-05T15:38:26.543Z,17.20
2022-10-05T15:41:11.362Z,7.70
2022-10-05T15:43:53.797Z,10.50
2022-10-05T15:46:35.466Z,11.20
2022-10-05T15:49:19.362Z,9.00
2022-10-05T15:52:02.632Z,12.90
2022-10-05T15:55:06.489Z,10.40
2022-10-05T15:57:45.760Z,9.80
2022-10-05T16:00:23.268Z,10.60
2022-10-05T16:03:06.287Z,8.00
2022-10-05T16:06:04.558Z,9.60
2022-10-05T16:08:56.350Z,8.70
2022-10-05T16:11:48.071Z,10.20
2022-10-05T16:14:33.476Z,13.20
2022-10-05T16:17:25.455Z,11.40
2022-10-05T16:20:12.515Z,9.10
2022-10-05T16:22:55.396Z,22.70
2022-10-05T16:25:35.376Z,9.40
2022-10-05T16:28:18.495Z,8.80
2022-10-05T16:30:59.812Z,8.50
2022-10-05T16:33:46.887Z,10.10
2022-10-05T16:36:36.818Z,13.00
2022-10-05T16:39:16.885Z,8.70
2022-10-05T16:41:57.323Z,11.00
2022-10-05T16:44:39.772Z,10.60
2022-10-05T16:47:38.883Z,10.30
2022-10-05T16:50:29.095Z,9.90
2022-10-05T16:53:04.846Z,11.30
2022-10-05T16:55:42.072Z,9.80
2022-10-05T16:58:21.667Z,10.20
2022-10-05T17:01:06.803Z,13.00
2022-10-05T17:03:50.913Z,10.00
2022-10-05T17:06:41.378Z,10.10
2022-10-05T17:09:23.797Z,8.50
2022-10-05T17:12:13.418Z,9.60
2022-10-05T17:15:01.879Z,6.70
2022-10-05T17:17:49.183Z,7.70
2022-10-05T17:20:42.931Z,8.00
2022-10-05T17:23:32.771Z,11.70
2022-10-05T17:26:34.275Z,8.90
2022-10-05T17:29:18.325Z,9.30
2022-10-05T17:32:33.534Z,12.50
2022-10-05T17:35:19.328Z,11.40
2022-10-05T17:38:24.732Z,10.40
2022-10-05T17:41:26.199Z,12.10
2022-10-05T17:44:20.652Z,10.00
2022-10-05T17:46:54.957Z,9.00
2022-10-05T17:49:48.031Z,11.80
2022-10-05T17:52:45.210Z,10.50
2022-10-05T17:55:36.033Z,10.10
2022-10-05T17:59:01.933Z,11.30
2022-10-05T18:01:36.195Z,10.20
2022-10-05T18:04:34.507Z,11.10
2022-10-05T18:07:19.053Z,8.50
2022-10-05T18:10:02.079Z,18.30
2022-10-05T18:12:48.464Z,13.70
2022-10-05T18:15:48.658Z,11.30
2022-10-05T18:18:57.371Z,10.10
2022-10-05T18:21:36.048Z,9.60
2022-10-05T18:24:28.181Z,12.70
2022-10-05T18:27:16.922Z,12.40
2022-10-05T18:30:05.704Z,19.20
2022-10-05T18:33:16.971Z,13.00
2022-10-05T18:36:01.980Z,13.20
2022-10-05T18:38:57.205Z,13.30
2022-10-05T18:41:41.474Z,9.60
2022-10-05T18:44:31.242Z,8.60
2022-10-05T18:47:13.445Z,24.00
2022-10-05T18:49:57.429Z,19.00
2022-10-05T18:52:43.819Z,14.20
2022-10-05T18:55:24.899Z,13.40
2022-10-05T18:58:21.414Z,16.40
2022-10-05T19:01:10.730Z,11.70
2022-10-05T19:03:55.086Z,18.30
2022-10-05T19:06:31.051Z,13.80
2022-10-05T19:09:16.212Z,14.20
2022-10-05T19:11:56.098Z,26.60
2022-10-05T19:14:38.697Z,14.90
2022-10-05T19:17:24.876Z,15.10
2022-10-05T19:20:10.893Z,22.00
2022-10-05T19:22:54.090Z,13.50
2022-10-05T19:25:37.837Z,17.20
2022-10-05T19:28:27.781Z,11.20
2022-10-05T19:31:21.446Z,11.60
2022-10-05T19:34:07.057Z,9.20
2022-10-05T19:36:54.790Z,12.60
2022-10-05T19:39:39.606Z,13.00
2022-10-05T19:42:32.191Z,10.10
2022-10-05T19:45:18.922Z,10.00
2022-10-05T19:48:01.933Z,14.00
2022-10-05T19:50:35.678Z,11.10
2022-10-05T19:53:17.269Z,12.20
2022-10-05T19:56:20.680Z,6.60
2022-10-05T19:58:57.438Z,13.30
2022-10-05T20:01:35.565Z,12.20
2022-10-05T20:04:09.527Z,10.10
2022-10-05T20:06:42.353Z,8.80
2022-10-05T20:09:24.703Z,9.90
2022-10-05T20:12:01.348Z,13.90
2022-10-05T20:14:58.552Z,8.50
2022-10-05T20:17:49.593Z,11.10
2022-10-05T20:23:25.161Z,5.70
2022-10-05T20:26:14.309Z,9.80
2022-10-05T20:28:47.826Z,6.90
2022-10-05T20:31:20.499Z,11.00
2022-10-05T20:33:52.773Z,10.90
2022-10-05T20:36:24.808Z,6.10
2022-10-05T20:38:56.937Z,7.80
2022-10-05T20:41:29.060Z,6.90
2022-10-05T20:44:01.137Z,8.40
2022-10-05T20:46:34.087Z,8.40
2022-10-05T20:49:09.683Z,11.80
2022-10-05T20:51:44.375Z,9.10
2022-10-05T20:54:19.133Z,7.90
2022-10-05T20:56:51.508Z,9.60
2022-10-05T20:59:27.202Z,10.40
2022-10-05T21:01:59.619Z,6.90
2022-10-05T21:04:40.872Z,8.70
2022-10-05T21:07:15.539Z,23.20
2022-10-05T21:09:47.826Z,9.70
2022-10-05T21:12:19.881Z,8.10
2022-10-05T21:14:52.901Z,7.00
2022-10-05T21:17:28.112Z,6.50
2022-10-05T21:20:00.286Z,8.60
2022-10-05T21:22:32.730Z,7.80
2022-10-05T21:25:09.150Z,8.00
2022-10-05T21:27:44.409Z,6.60
2022-10-05T21:30:17.061Z,9.40
2022-10-05T21:32:49.259Z,5.60
2022-10-05T21:35:21.639Z,7.50
2022-10-05T21:37:56.295Z,8.00
2022-10-05T21:40:28.633Z,11.90
2022-10-05T21:43:00.883Z,13.30
2022-10-05T21:45:33.587Z,7.90
2022-10-05T21:48:06.509Z,7.20
2022-10-05T21:50:40.023Z,11.60
2022-10-05T21:53:14.430Z,5.70
2022-10-05T21:55:50.142Z,7.90
2022-10-05T21:58:23.999Z,10.00
2022-10-05T22:00:56.127Z,6.50
2022-10-05T22:03:28.881Z,7.80
2022-10-05T22:06:01.046Z,6.40
2022-10-05T22:08:35.116Z,9.50
2022-10-05T22:11:15.166Z,9.00
2022-10-05T22:13:49.418Z,4.70
2022-10-05T22:16:24.647Z,9.70
2022-10-05T22:18:57.401Z,5.90
2022-10-05T22:21:32.135Z,9.00
2022-10-05T22:24:06.152Z,5.80
2022-10-05T22:26:38.616Z,6.50
2022-10-05T22:29:10.840Z,5.50
2022-10-05T22:31:43.178Z,5.60
2022-10-05T22:34:19.584Z,8.80
2022-10-05T22:36:52.094Z,4.80
2022-10-05T22:39:24.243Z,5.60
2022-10-05T22:41:58.105Z,10.60
2022-10-05T22:44:33.392Z,9.70
2022-10-05T22:47:06.380Z,9.60
2022-10-05T22:49:38.447Z,5.90
2022-10-05T22:52:10.501Z,4.70
2022-10-05T22:54:42.752Z,7.10
2022-10-05T22:57:17.277Z,13.50
2022-10-05T22:59:49.714Z,6.60
2022-10-05T23:02:22.115Z,6.30
2022-10-05T23:04:54.245Z,9.10
2022-10-05T23:07:26.416Z,7.90
2022-10-05T23:09:59.274Z,6.40
2022-10-05T23:12:34.766Z,5.40
2022-10-05T23:15:09.499Z,9.70
2022-10-05T23:17:41.833Z,7.90
2022-10-05T23:20:14.278Z,5.00
2022-10-05T23:22:46.294Z,3.50
2022-10-05T23:25:19.178Z,8.20
2022-10-05T23:27:51.921Z,8.10
2022-10-05T23:30:24.329Z,10.40
2022-10-05T23:32:57.657Z,8.40
2022-10-05T23:35:29.843Z,5.50
2022-10-05T23:38:02.163Z,4.60
2022-10-05T23:40:34.270Z,7.50
2022-10-05T23:43:06.911Z,4.80
2022-10-05T23:45:39.240Z,6.90
2022-10-05T23:48:11.903Z,7.30
2022-10-05T23:50:44.126Z,4.50
2022-10-05T23:53:17.678Z,4.60
2022-10-05T23:55:52.611Z,8.30
2022-10-05T23:58:27.699Z,6.30
